| Date | Time | Temp. (oF) | Dew Point (oF) | Rel. Hum. (%) | Press. (in.) | Wind Dir. (deg.) | Wind Speed (mph) | Hourly Rainfall (i n.) |
|
|---|---|---|---|---|---|---|---|---|---|
| 1 | 10/01 | 24:00 | 52 | 46 | 81 | 30.23 | 290 | 0 | 0.00 |
| 2 | 09/30 | 23:00 | 54 | 47 | 79 | 30.23 | 290 | 0 | 0.00 |
| 3 | 09/30 | 22:00 | 56 | 47 | 74 | 30.22 | 290 | 0 | 0.00 |
| 4 | 09/30 | 21:00 | 58 | 47 | 69 | 30.22 | 290 | 0 | 0.00 |
| 5 | 09/30 | 20:00 | 61 | 45 | 56 | 30.20 | 290 | 1 | 0.00 |
| 6 | 09/30 | 19:00 | 63 | 46 | 54 | 30.21 | 310 | 1 | 0.00 |
| 7 | 09/30 | 18:00 | 66 | 45 | 48 | 30.23 | 40 | 4 | 0.00 |
| 8 | 09/30 | 17:00 | 68 | 45 | 44 | 30.22 | 270 | 14 | 0.00 |
| 9 | 09/30 | 16:00 | 67 | 48 | 51 | 30.19 | 310 | 10 | 0.00 |
| 10 | 09/30 | 15:00 | 66 | 47 | 52 | 30.17 | 350 | 13 | 0.00 |
| 11 | 09/30 | 14:00 | 67 | 49 | 54 | 30.14 | 290 | 15 | 0.00 |
| 12 | 09/30 | 13:00 | 66 | 51 | 59 | 30.12 | 270 | 15 | 0.00 |
| 13 | 09/30 | 12:00 | 63 | 50 | 63 | 30.10 | 290 | 12 | 0.00 |
| 14 | 09/30 | 11:00 | 62 | 50 | 67 | 30.08 | 240 | 10 | 0.00 |
| 15 | 09/30 | 10:00 | 62 | 53 | 73 | 30.05 | 250 | 10 | 0.00 |
| 16 | 09/30 | 09:00 | 58 | 53 | 84 | 30.03 | 260 | 10 | 0.00 |
| 17 | 09/30 | 08:00 | 58 | 54 | 88 | 30.02 | 290 | 2 | 0.00 |
| 18 | 09/30 | 07:00 | 59 | 56 | 92 | 29.99 | 290 | 2 | 0.00 |
| 19 | 09/30 | 06:00 | 60 | 58 | 94 | 29.97 | 270 | 6 | 0.01 |
| 20 | 09/30 | 05:00 | 60 | 58 | 94 | 29.96 | 290 | 2 | 0.10 |
| 21 | 09/30 | 04:00 | 60 | 57 | 93 | 29.94 | 270 | 0 | 0.28 |
| 22 | 09/30 | 03:00 | 61 | 58 | 92 | 29.94 | 270 | 1 | 0.20 |
| 23 | 09/30 | 02:00 | 63 | 59 | 87 | 29.97 | 300 | 10 | 0.27 |
| 24 | 09/30 | 01:00 | 70 | 67 | 91 | 29.90 | 170 | 10 | 0.07 |